sensor_id;sensor_type;location;lat;lon;timestamp;P1;durP1;ratioP1;P2;durP2;ratioP2
26163;SDS011;13914;48.178;11.716;2023-03-03T00:01:03;41.15;;;18.83;;
26163;SDS011;13914;48.178;11.716;2023-03-03T00:03:30;45.00;;;20.88;;
26163;SDS011;13914;48.178;11.716;2023-03-03T00:05:57;51.53;;;21.35;;
26163;SDS011;13914;48.178;11.716;2023-03-03T00:08:23;46.80;;;19.80;;
26163;SDS011;13914;48.178;11.716;2023-03-03T00:10:50;54.25;;;22.02;;
26163;SDS011;13914;48.178;11.716;2023-03-03T00:13:20;54.22;;;22.48;;
26163;SDS011;13914;48.178;11.716;2023-03-03T00:15:49;58.80;;;25.33;;
26163;SDS011;13914;48.178;11.716;2023-03-03T00:18:27;49.63;;;20.65;;
26163;SDS011;13914;48.178;11.716;2023-03-03T00:21:02;47.83;;;19.52;;
26163;SDS011;13914;48.178;11.716;2023-03-03T00:26:51;55.25;;;20.83;;
26163;SDS011;13914;48.178;11.716;2023-03-03T00:29:40;52.55;;;22.10;;
26163;SDS011;13914;48.178;11.716;2023-03-03T00:35:01;48.63;;;20.55;;
26163;SDS011;13914;48.178;11.716;2023-03-03T00:38:01;58.85;;;23.35;;
26163;SDS011;13914;48.178;11.716;2023-03-03T00:40:37;54.55;;;24.02;;
26163;SDS011;13914;48.178;11.716;2023-03-03T00:43:13;63.88;;;26.08;;
26163;SDS011;13914;48.178;11.716;2023-03-03T00:45:56;53.22;;;23.25;;
26163;SDS011;13914;48.178;11.716;2023-03-03T00:50:56;55.65;;;24.55;;
26163;SDS011;13914;48.178;11.716;2023-03-03T00:53:24;49.55;;;21.50;;
26163;SDS011;13914;48.178;11.716;2023-03-03T00:55:53;43.45;;;18.83;;
26163;SDS011;13914;48.178;11.716;2023-03-03T00:58:20;51.53;;;20.33;;
26163;SDS011;13914;48.178;11.716;2023-03-03T01:00:48;52.83;;;22.02;;
26163;SDS011;13914;48.178;11.716;2023-03-03T01:03:18;47.40;;;19.80;;
26163;SDS011;13914;48.178;11.716;2023-03-03T01:05:49;43.22;;;17.83;;
26163;SDS011;13914;48.178;11.716;2023-03-03T01:08:16;41.58;;;18.05;;
26163;SDS011;13914;48.178;11.716;2023-03-03T01:10:45;42.05;;;17.92;;
26163;SDS011;13914;48.178;11.716;2023-03-03T01:13:21;45.75;;;19.15;;
26163;SDS011;13914;48.178;11.716;2023-03-03T01:15:51;46.28;;;19.73;;
26163;SDS011;13914;48.178;11.716;2023-03-03T01:18:17;44.80;;;18.55;;
26163;SDS011;13914;48.178;11.716;2023-03-03T01:20:43;49.50;;;19.85;;
26163;SDS011;13914;48.178;11.716;2023-03-03T01:23:09;44.67;;;20.67;;
26163;SDS011;13914;48.178;11.716;2023-03-03T01:25:35;43.90;;;19.63;;
26163;SDS011;13914;48.178;11.716;2023-03-03T01:28:01;37.83;;;17.98;;
26163;SDS011;13914;48.178;11.716;2023-03-03T01:30:27;40.95;;;18.00;;
26163;SDS011;13914;48.178;11.716;2023-03-03T01:32:53;28.63;;;13.30;;
26163;SDS011;13914;48.178;11.716;2023-03-03T01:35:19;45.13;;;19.65;;
26163;SDS011;13914;48.178;11.716;2023-03-03T01:37:45;38.35;;;17.90;;
26163;SDS011;13914;48.178;11.716;2023-03-03T01:40:12;29.08;;;12.15;;
26163;SDS011;13914;48.178;11.716;2023-03-03T01:42:47;42.92;;;19.15;;
26163;SDS011;13914;48.178;11.716;2023-03-03T01:45:18;41.55;;;17.58;;
26163;SDS011;13914;48.178;11.716;2023-03-03T01:47:46;50.28;;;21.45;;
26163;SDS011;13914;48.178;11.716;2023-03-03T01:50:29;28.38;;;12.48;;
26163;SDS011;13914;48.178;11.716;2023-03-03T01:53:24;37.17;;;16.33;;
26163;SDS011;13914;48.178;11.716;2023-03-03T01:55:59;39.58;;;17.13;;
26163;SDS011;13914;48.178;11.716;2023-03-03T01:58:29;35.38;;;16.15;;
26163;SDS011;13914;48.178;11.716;2023-03-03T02:01:04;36.53;;;16.27;;
26163;SDS011;13914;48.178;11.716;2023-03-03T02:03:35;36.00;;;17.20;;
26163;SDS011;13914;48.178;11.716;2023-03-03T02:06:08;41.70;;;16.73;;
26163;SDS011;13914;48.178;11.716;2023-03-03T02:08:43;38.63;;;17.00;;
26163;SDS011;13914;48.178;11.716;2023-03-03T02:11:35;38.05;;;16.15;;
26163;SDS011;13914;48.178;11.716;2023-03-03T02:14:05;36.83;;;15.82;;
26163;SDS011;13914;48.178;11.716;2023-03-03T02:16:30;39.47;;;16.65;;
26163;SDS011;13914;48.178;11.716;2023-03-03T02:18:56;26.25;;;11.52;;
26163;SDS011;13914;48.178;11.716;2023-03-03T02:21:23;35.78;;;16.27;;
26163;SDS011;13914;48.178;11.716;2023-03-03T02:23:56;40.38;;;17.00;;
26163;SDS011;13914;48.178;11.716;2023-03-03T02:26:42;40.60;;;16.42;;
26163;SDS011;13914;48.178;11.716;2023-03-03T02:29:09;38.45;;;17.10;;
26163;SDS011;13914;48.178;11.716;2023-03-03T02:31:35;46.58;;;18.58;;
26163;SDS011;13914;48.178;11.716;2023-03-03T02:34:02;40.65;;;18.30;;
26163;SDS011;13914;48.178;11.716;2023-03-03T02:36:35;37.35;;;14.73;;
26163;SDS011;13914;48.178;11.716;2023-03-03T02:42:06;39.72;;;16.20;;
26163;SDS011;13914;48.178;11.716;2023-03-03T02:44:50;38.00;;;17.23;;
26163;SDS011;13914;48.178;11.716;2023-03-03T02:47:15;33.15;;;14.82;;
26163;SDS011;13914;48.178;11.716;2023-03-03T02:49:41;40.15;;;17.10;;
26163;SDS011;13914;48.178;11.716;2023-03-03T02:52:08;39.58;;;18.33;;
26163;SDS011;13914;48.178;11.716;2023-03-03T02:54:35;47.42;;;19.77;;
26163;SDS011;13914;48.178;11.716;2023-03-03T02:57:05;41.95;;;18.73;;
26163;SDS011;13914;48.178;11.716;2023-03-03T03:01:57;40.28;;;17.15;;
26163;SDS011;13914;48.178;11.716;2023-03-03T03:04:24;39.90;;;17.35;;
26163;SDS011;13914;48.178;11.716;2023-03-03T03:06:52;37.38;;;16.50;;
26163;SDS011;13914;48.178;11.716;2023-03-03T03:09:19;37.22;;;17.10;;
26163;SDS011;13914;48.178;11.716;2023-03-03T03:11:46;44.03;;;18.92;;
26163;SDS011;13914;48.178;11.716;2023-03-03T03:14:12;35.40;;;15.68;;
26163;SDS011;13914;48.178;11.716;2023-03-03T03:16:39;43.47;;;18.67;;
26163;SDS011;13914;48.178;11.716;2023-03-03T03:19:05;33.28;;;14.77;;
26163;SDS011;13914;48.178;11.716;2023-03-03T03:21:32;43.00;;;18.17;;
26163;SDS011;13914;48.178;11.716;2023-03-03T03:24:00;33.67;;;14.30;;
26163;SDS011;13914;48.178;11.716;2023-03-03T03:26:26;35.78;;;15.55;;
26163;SDS011;13914;48.178;11.716;2023-03-03T03:28:52;45.60;;;20.13;;
26163;SDS011;13914;48.178;11.716;2023-03-03T03:31:18;27.95;;;11.45;;
26163;SDS011;13914;48.178;11.716;2023-03-03T03:33:46;41.47;;;17.15;;
26163;SDS011;13914;48.178;11.716;2023-03-03T03:36:12;37.60;;;16.45;;
26163;SDS011;13914;48.178;11.716;2023-03-03T03:38:38;43.40;;;17.63;;
26163;SDS011;13914;48.178;11.716;2023-03-03T03:41:04;44.22;;;17.20;;
26163;SDS011;13914;48.178;11.716;2023-03-03T03:43:31;51.60;;;21.63;;
26163;SDS011;13914;48.178;11.716;2023-03-03T03:45:57;56.53;;;21.77;;
26163;SDS011;13914;48.178;11.716;2023-03-03T03:48:23;48.50;;;19.95;;
26163;SDS011;13914;48.178;11.716;2023-03-03T03:50:49;44.58;;;18.10;;
26163;SDS011;13914;48.178;11.716;2023-03-03T03:55:42;56.53;;;20.55;;
26163;SDS011;13914;48.178;11.716;2023-03-03T03:58:15;40.85;;;17.80;;
26163;SDS011;13914;48.178;11.716;2023-03-03T04:00:42;41.95;;;18.67;;
26163;SDS011;13914;48.178;11.716;2023-03-03T04:03:09;57.60;;;23.25;;
26163;SDS011;13914;48.178;11.716;2023-03-03T04:12:53;46.58;;;19.23;;
26163;SDS011;13914;48.178;11.716;2023-03-03T04:15:19;33.30;;;13.68;;
26163;SDS011;13914;48.178;11.716;2023-03-03T04:17:45;43.88;;;17.23;;
26163;SDS011;13914;48.178;11.716;2023-03-03T04:20:14;54.35;;;22.33;;
26163;SDS011;13914;48.178;11.716;2023-03-03T04:22:41;61.17;;;24.27;;
26163;SDS011;13914;48.178;11.716;2023-03-03T04:25:08;65.35;;;24.60;;
26163;SDS011;13914;48.178;11.716;2023-03-03T04:27:37;44.85;;;20.30;;
26163;SDS011;13914;48.178;11.716;2023-03-03T04:30:03;45.67;;;19.13;;
26163;SDS011;13914;48.178;11.716;2023-03-03T04:32:30;52.22;;;22.33;;
26163;SDS011;13914;48.178;11.716;2023-03-03T04:34:58;46.53;;;20.35;;
26163;SDS011;13914;48.178;11.716;2023-03-03T04:37:25;56.70;;;20.77;;
26163;SDS011;13914;48.178;11.716;2023-03-03T04:39:50;40.40;;;17.50;;
26163;SDS011;13914;48.178;11.716;2023-03-03T04:42:16;62.00;;;22.52;;
26163;SDS011;13914;48.178;11.716;2023-03-03T04:44:42;56.88;;;21.70;;
26163;SDS011;13914;48.178;11.716;2023-03-03T04:47:08;66.63;;;25.45;;
26163;SDS011;13914;48.178;11.716;2023-03-03T04:49:34;48.08;;;18.33;;
26163;SDS011;13914;48.178;11.716;2023-03-03T04:56:52;56.65;;;21.63;;
26163;SDS011;13914;48.178;11.716;2023-03-03T04:59:18;61.78;;;24.40;;
26163;SDS011;13914;48.178;11.716;2023-03-03T05:01:43;58.03;;;23.98;;
26163;SDS011;13914;48.178;11.716;2023-03-03T05:04:10;46.97;;;19.30;;
26163;SDS011;13914;48.178;11.716;2023-03-03T05:06:36;55.17;;;21.75;;
26163;SDS011;13914;48.178;11.716;2023-03-03T05:09:02;69.88;;;26.13;;
26163;SDS011;13914;48.178;11.716;2023-03-03T05:11:28;56.50;;;24.23;;
26163;SDS011;13914;48.178;11.716;2023-03-03T05:13:54;38.15;;;17.17;;
26163;SDS011;13914;48.178;11.716;2023-03-03T05:16:20;57.72;;;24.75;;
26163;SDS011;13914;48.178;11.716;2023-03-03T05:18:46;64.63;;;25.83;;
26163;SDS011;13914;48.178;11.716;2023-03-03T05:21:12;42.03;;;18.25;;
26163;SDS011;13914;48.178;11.716;2023-03-03T05:23:38;52.15;;;21.52;;
26163;SDS011;13914;48.178;11.716;2023-03-03T05:26:04;49.13;;;19.80;;
26163;SDS011;13914;48.178;11.716;2023-03-03T05:28:32;47.78;;;19.60;;
26163;SDS011;13914;48.178;11.716;2023-03-03T05:30:58;74.47;;;29.48;;
26163;SDS011;13914;48.178;11.716;2023-03-03T05:33:23;73.47;;;31.50;;
26163;SDS011;13914;48.178;11.716;2023-03-03T05:35:53;71.88;;;29.75;;
26163;SDS011;13914;48.178;11.716;2023-03-03T05:38:20;72.55;;;31.27;;
26163;SDS011;13914;48.178;11.716;2023-03-03T05:40:45;70.85;;;29.15;;
26163;SDS011;13914;48.178;11.716;2023-03-03T05:43:12;73.55;;;29.52;;
26163;SDS011;13914;48.178;11.716;2023-03-03T05:45:37;78.63;;;32.47;;
26163;SDS011;13914;48.178;11.716;2023-03-03T05:48:03;78.22;;;29.67;;
26163;SDS011;13914;48.178;11.716;2023-03-03T05:50:29;66.10;;;26.90;;
26163;SDS011;13914;48.178;11.716;2023-03-03T05:52:56;68.53;;;28.55;;
26163;SDS011;13914;48.178;11.716;2023-03-03T05:55:22;79.50;;;29.45;;
26163;SDS011;13914;48.178;11.716;2023-03-03T05:57:48;55.47;;;23.23;;
26163;SDS011;13914;48.178;11.716;2023-03-03T06:00:14;79.80;;;31.90;;
26163;SDS011;13914;48.178;11.716;2023-03-03T06:02:41;55.40;;;21.25;;
26163;SDS011;13914;48.178;11.716;2023-03-03T06:05:08;75.90;;;30.30;;
26163;SDS011;13914;48.178;11.716;2023-03-03T06:07:35;73.88;;;31.02;;
26163;SDS011;13914;48.178;11.716;2023-03-03T06:10:02;57.75;;;25.70;;
26163;SDS011;13914;48.178;11.716;2023-03-03T06:12:29;72.28;;;28.60;;
26163;SDS011;13914;48.178;11.716;2023-03-03T06:14:54;80.25;;;31.50;;
26163;SDS011;13914;48.178;11.716;2023-03-03T06:17:20;58.67;;;22.40;;
26163;SDS011;13914;48.178;11.716;2023-03-03T06:19:46;82.25;;;32.90;;
26163;SDS011;13914;48.178;11.716;2023-03-03T06:22:12;56.58;;;22.38;;
26163;SDS011;13914;48.178;11.716;2023-03-03T06:24:38;75.53;;;30.17;;
26163;SDS011;13914;48.178;11.716;2023-03-03T06:27:04;83.03;;;30.33;;
26163;SDS011;13914;48.178;11.716;2023-03-03T06:29:29;88.70;;;33.10;;
26163;SDS011;13914;48.178;11.716;2023-03-03T06:31:55;83.38;;;32.22;;
26163;SDS011;13914;48.178;11.716;2023-03-03T06:34:21;79.97;;;31.27;;
26163;SDS011;13914;48.178;11.716;2023-03-03T06:36:47;83.93;;;32.40;;
26163;SDS011;13914;48.178;11.716;2023-03-03T06:39:13;72.28;;;30.48;;
26163;SDS011;13914;48.178;11.716;2023-03-03T06:41:39;55.40;;;23.40;;
26163;SDS011;13914;48.178;11.716;2023-03-03T06:44:05;87.63;;;32.70;;
26163;SDS011;13914;48.178;11.716;2023-03-03T06:46:30;81.57;;;31.55;;
26163;SDS011;13914;48.178;11.716;2023-03-03T06:48:56;90.00;;;32.40;;
26163;SDS011;13914;48.178;11.716;2023-03-03T06:51:23;54.50;;;22.48;;
26163;SDS011;13914;48.178;11.716;2023-03-03T06:54:00;78.30;;;30.92;;
26163;SDS011;13914;48.178;11.716;2023-03-03T06:56:35;80.10;;;31.35;;
26163;SDS011;13914;48.178;11.716;2023-03-03T06:59:05;76.32;;;30.80;;
26163;SDS011;13914;48.178;11.716;2023-03-03T07:01:40;70.72;;;27.67;;
26163;SDS011;13914;48.178;11.716;2023-03-03T07:04:27;78.18;;;34.28;;
26163;SDS011;13914;48.178;11.716;2023-03-03T07:07:09;82.25;;;32.65;;
26163;SDS011;13914;48.178;11.716;2023-03-03T07:09:49;83.40;;;33.35;;
26163;SDS011;13914;48.178;11.716;2023-03-03T07:12:20;84.18;;;32.08;;
26163;SDS011;13914;48.178;11.716;2023-03-03T07:14:51;77.93;;;29.38;;
26163;SDS011;13914;48.178;11.716;2023-03-03T07:17:35;78.78;;;33.25;;
26163;SDS011;13914;48.178;11.716;2023-03-03T07:20:21;78.13;;;32.50;;
26163;SDS011;13914;48.178;11.716;2023-03-03T07:22:49;81.82;;;32.33;;
26163;SDS011;13914;48.178;11.716;2023-03-03T07:25:34;76.55;;;32.58;;
26163;SDS011;13914;48.178;11.716;2023-03-03T07:28:09;76.90;;;28.60;;
26163;SDS011;13914;48.178;11.716;2023-03-03T07:30:47;74.88;;;29.80;;
26163;SDS011;13914;48.178;11.716;2023-03-03T07:35:52;74.75;;;29.80;;
26163;SDS011;13914;48.178;11.716;2023-03-03T07:41:05;71.90;;;28.73;;
26163;SDS011;13914;48.178;11.716;2023-03-03T07:44:21;77.03;;;30.27;;
26163;SDS011;13914;48.178;11.716;2023-03-03T07:46:47;70.55;;;28.77;;
26163;SDS011;13914;48.178;11.716;2023-03-03T07:49:33;78.68;;;31.20;;
26163;SDS011;13914;48.178;11.716;2023-03-03T07:52:01;76.10;;;30.60;;
26163;SDS011;13914;48.178;11.716;2023-03-03T07:54:50;81.47;;;32.47;;
26163;SDS011;13914;48.178;11.716;2023-03-03T07:57:25;79.50;;;31.50;;
26163;SDS011;13914;48.178;11.716;2023-03-03T08:10:35;71.07;;;28.48;;
26163;SDS011;13914;48.178;11.716;2023-03-03T08:13:20;76.32;;;30.98;;
26163;SDS011;13914;48.178;11.716;2023-03-03T08:16:20;73.45;;;32.25;;
26163;SDS011;13914;48.178;11.716;2023-03-03T08:19:09;79.60;;;31.63;;
26163;SDS011;13914;48.178;11.716;2023-03-03T08:21:37;89.72;;;36.33;;
26163;SDS011;13914;48.178;11.716;2023-03-03T08:24:03;78.55;;;33.67;;
26163;SDS011;13914;48.178;11.716;2023-03-03T08:26:29;64.28;;;26.92;;
26163;SDS011;13914;48.178;11.716;2023-03-03T08:28:55;71.50;;;29.00;;
26163;SDS011;13914;48.178;11.716;2023-03-03T08:31:21;56.70;;;25.10;;
26163;SDS011;13914;48.178;11.716;2023-03-03T08:33:47;89.28;;;35.90;;
26163;SDS011;13914;48.178;11.716;2023-03-03T08:36:13;92.30;;;36.83;;
26163;SDS011;13914;48.178;11.716;2023-03-03T08:38:39;74.50;;;30.52;;
26163;SDS011;13914;48.178;11.716;2023-03-03T08:41:06;69.10;;;27.67;;
26163;SDS011;13914;48.178;11.716;2023-03-03T08:43:32;73.90;;;32.15;;
26163;SDS011;13914;48.178;11.716;2023-03-03T08:45:58;81.85;;;33.95;;
26163;SDS011;13914;48.178;11.716;2023-03-03T08:48:26;84.15;;;34.58;;
26163;SDS011;13914;48.178;11.716;2023-03-03T08:50:53;75.47;;;32.30;;
26163;SDS011;13914;48.178;11.716;2023-03-03T08:53:20;75.03;;;32.72;;
26163;SDS011;13914;48.178;11.716;2023-03-03T08:55:46;80.50;;;34.05;;
26163;SDS011;13914;48.178;11.716;2023-03-03T08:58:12;46.65;;;21.20;;
26163;SDS011;13914;48.178;11.716;2023-03-03T09:00:40;77.75;;;33.38;;
26163;SDS011;13914;48.178;11.716;2023-03-03T09:03:06;75.30;;;33.10;;
26163;SDS011;13914;48.178;11.716;2023-03-03T09:05:32;74.78;;;30.88;;
26163;SDS011;13914;48.178;11.716;2023-03-03T09:08:00;76.03;;;32.33;;
26163;SDS011;13914;48.178;11.716;2023-03-03T09:10:26;90.00;;;36.10;;
26163;SDS011;13914;48.178;11.716;2023-03-03T09:12:59;75.78;;;32.13;;
26163;SDS011;13914;48.178;11.716;2023-03-03T09:15:38;85.30;;;34.78;;
26163;SDS011;13914;48.178;11.716;2023-03-03T09:20:49;77.73;;;33.40;;
26163;SDS011;13914;48.178;11.716;2023-03-03T09:29:00;70.43;;;27.63;;
26163;SDS011;13914;48.178;11.716;2023-03-03T09:31:42;75.72;;;31.55;;
26163;SDS011;13914;48.178;11.716;2023-03-03T09:37:00;78.05;;;33.10;;
26163;SDS011;13914;48.178;11.716;2023-03-03T09:39:39;72.90;;;30.73;;
26163;SDS011;13914;48.178;11.716;2023-03-03T09:45:10;72.65;;;29.98;;
26163;SDS011;13914;48.178;11.716;2023-03-03T09:50:43;71.53;;;30.33;;
26163;SDS011;13914;48.178;11.716;2023-03-03T09:56:41;77.95;;;34.55;;
26163;SDS011;13914;48.178;11.716;2023-03-03T10:02:37;78.05;;;33.60;;
26163;SDS011;13914;48.178;11.716;2023-03-03T10:11:03;78.38;;;33.22;;
26163;SDS011;13914;48.178;11.716;2023-03-03T10:22:37;68.05;;;25.20;;
26163;SDS011;13914;48.178;11.716;2023-03-03T10:25:20;70.60;;;32.08;;
26163;SDS011;13914;48.178;11.716;2023-03-03T10:28:16;59.92;;;24.60;;
26163;SDS011;13914;48.178;11.716;2023-03-03T10:39:26;73.18;;;33.60;;
26163;SDS011;13914;48.178;11.716;2023-03-03T10:42:14;87.93;;;36.58;;
26163;SDS011;13914;48.178;11.716;2023-03-03T11:00:17;67.13;;;30.80;;
26163;SDS011;13914;48.178;11.716;2023-03-03T11:06:01;70.15;;;29.35;;
26163;SDS011;13914;48.178;11.716;2023-03-03T11:32:41;69.68;;;31.05;;
26163;SDS011;13914;48.178;11.716;2023-03-03T11:35:39;74.35;;;35.67;;
26163;SDS011;13914;48.178;11.716;2023-03-03T11:38:33;66.93;;;31.30;;
26163;SDS011;13914;48.178;11.716;2023-03-03T11:49:59;73.40;;;34.53;;
26163;SDS011;13914;48.178;11.716;2023-03-03T11:52:39;77.10;;;35.67;;
26163;SDS011;13914;48.178;11.716;2023-03-03T11:55:15;68.18;;;31.23;;
26163;SDS011;13914;48.178;11.716;2023-03-03T12:06:07;73.65;;;33.72;;
26163;SDS011;13914;48.178;11.716;2023-03-03T12:11:52;68.07;;;31.45;;
26163;SDS011;13914;48.178;11.716;2023-03-03T12:17:39;65.47;;;30.95;;
26163;SDS011;13914;48.178;11.716;2023-03-03T12:23:19;79.80;;;33.55;;
26163;SDS011;13914;48.178;11.716;2023-03-03T12:26:24;66.30;;;30.80;;
26163;SDS011;13914;48.178;11.716;2023-03-03T12:29:22;73.63;;;33.67;;
26163;SDS011;13914;48.178;11.716;2023-03-03T12:32:26;75.35;;;33.53;;
26163;SDS011;13914;48.178;11.716;2023-03-03T12:44:21;65.68;;;32.95;;
26163;SDS011;13914;48.178;11.716;2023-03-03T12:46:58;81.60;;;36.45;;
26163;SDS011;13914;48.178;11.716;2023-03-03T12:52:44;69.72;;;32.38;;
26163;SDS011;13914;48.178;11.716;2023-03-03T12:55:39;65.80;;;33.33;;
26163;SDS011;13914;48.178;11.716;2023-03-03T12:58:59;64.15;;;32.70;;
26163;SDS011;13914;48.178;11.716;2023-03-03T13:16:32;65.95;;;28.55;;
26163;SDS011;13914;48.178;11.716;2023-03-03T13:19:08;73.22;;;33.85;;
26163;SDS011;13914;48.178;11.716;2023-03-03T13:21:46;71.18;;;33.35;;
26163;SDS011;13914;48.178;11.716;2023-03-03T13:27:08;75.47;;;33.63;;
26163;SDS011;13914;48.178;11.716;2023-03-03T13:29:42;68.65;;;33.00;;
26163;SDS011;13914;48.178;11.716;2023-03-03T13:32:22;68.18;;;32.95;;
26163;SDS011;13914;48.178;11.716;2023-03-03T13:37:46;64.13;;;32.72;;
26163;SDS011;13914;48.178;11.716;2023-03-03T13:40:24;60.90;;;30.45;;
26163;SDS011;13914;48.178;11.716;2023-03-03T13:45:38;69.85;;;32.67;;
26163;SDS011;13914;48.178;11.716;2023-03-03T13:51:42;58.13;;;30.83;;
26163;SDS011;13914;48.178;11.716;2023-03-03T14:00:11;60.15;;;29.20;;
26163;SDS011;13914;48.178;11.716;2023-03-03T14:03:02;55.33;;;28.30;;
26163;SDS011;13914;48.178;11.716;2023-03-03T14:06:02;61.20;;;28.15;;
26163;SDS011;13914;48.178;11.716;2023-03-03T14:11:45;61.55;;;31.17;;
26163;SDS011;13914;48.178;11.716;2023-03-03T14:17:22;58.25;;;30.35;;
26163;SDS011;13914;48.178;11.716;2023-03-03T14:25:57;56.97;;;29.00;;
26163;SDS011;13914;48.178;11.716;2023-03-03T14:28:37;66.50;;;29.50;;
26163;SDS011;13914;48.178;11.716;2023-03-03T14:34:13;61.95;;;31.80;;
26163;SDS011;13914;48.178;11.716;2023-03-03T14:36:42;61.63;;;31.73;;
26163;SDS011;13914;48.178;11.716;2023-03-03T14:39:27;53.78;;;27.85;;
26163;SDS011;13914;48.178;11.716;2023-03-03T14:42:10;53.58;;;27.88;;
26163;SDS011;13914;48.178;11.716;2023-03-03T14:47:57;54.70;;;29.48;;
26163;SDS011;13914;48.178;11.716;2023-03-03T14:50:30;52.65;;;27.17;;
26163;SDS011;13914;48.178;11.716;2023-03-03T14:58:48;57.30;;;27.10;;
26163;SDS011;13914;48.178;11.716;2023-03-03T15:01:21;62.15;;;28.80;;
26163;SDS011;13914;48.178;11.716;2023-03-03T15:06:28;50.63;;;26.60;;
26163;SDS011;13914;48.178;11.716;2023-03-03T15:11:55;53.00;;;28.38;;
26163;SDS011;13914;48.178;11.716;2023-03-03T15:14:35;52.15;;;27.55;;
26163;SDS011;13914;48.178;11.716;2023-03-03T15:20:48;49.13;;;25.77;;
26163;SDS011;13914;48.178;11.716;2023-03-03T15:28:41;48.73;;;25.83;;
26163;SDS011;13914;48.178;11.716;2023-03-03T15:34:43;59.22;;;29.92;;
26163;SDS011;13914;48.178;11.716;2023-03-03T15:40:27;53.63;;;27.33;;
26163;SDS011;13914;48.178;11.716;2023-03-03T15:45:44;61.75;;;29.50;;
26163;SDS011;13914;48.178;11.716;2023-03-03T15:48:53;49.20;;;27.83;;
26163;SDS011;13914;48.178;11.716;2023-03-03T15:52:26;56.03;;;28.92;;
26163;SDS011;13914;48.178;11.716;2023-03-03T15:54:50;58.25;;;29.67;;
26163;SDS011;13914;48.178;11.716;2023-03-03T15:57:52;56.00;;;28.58;;
26163;SDS011;13914;48.178;11.716;2023-03-03T16:01:00;66.72;;;30.98;;
26163;SDS011;13914;48.178;11.716;2023-03-03T16:03:48;55.60;;;28.00;;
26163;SDS011;13914;48.178;11.716;2023-03-03T16:15:57;66.55;;;32.80;;
26163;SDS011;13914;48.178;11.716;2023-03-03T16:18:57;56.67;;;28.75;;
26163;SDS011;13914;48.178;11.716;2023-03-03T16:24:42;60.13;;;30.20;;
26163;SDS011;13914;48.178;11.716;2023-03-03T16:38:48;56.03;;;30.27;;
26163;SDS011;13914;48.178;11.716;2023-03-03T16:47:42;62.58;;;31.95;;
26163;SDS011;13914;48.178;11.716;2023-03-03T16:50:25;62.75;;;32.90;;
26163;SDS011;13914;48.178;11.716;2023-03-03T17:01:57;61.38;;;30.10;;
26163;SDS011;13914;48.178;11.716;2023-03-03T17:14:22;69.93;;;35.08;;
26163;SDS011;13914;48.178;11.716;2023-03-03T17:20:15;84.20;;;38.28;;
26163;SDS011;13914;48.178;11.716;2023-03-03T17:31:50;52.05;;;25.30;;
26163;SDS011;13914;48.178;11.716;2023-03-03T17:34:43;52.05;;;25.95;;
26163;SDS011;13914;48.178;11.716;2023-03-03T17:43:06;49.83;;;24.42;;
26163;SDS011;13914;48.178;11.716;2023-03-03T17:45:46;39.92;;;22.30;;
26163;SDS011;13914;48.178;11.716;2023-03-03T18:20:49;43.92;;;22.60;;
26163;SDS011;13914;48.178;11.716;2023-03-03T18:23:38;41.58;;;21.88;;
26163;SDS011;13914;48.178;11.716;2023-03-03T18:29:08;52.60;;;24.30;;
26163;SDS011;13914;48.178;11.716;2023-03-03T18:34:33;45.80;;;23.50;;
26163;SDS011;13914;48.178;11.716;2023-03-03T18:43:38;48.50;;;25.17;;
26163;SDS011;13914;48.178;11.716;2023-03-03T18:46:04;46.08;;;23.23;;
26163;SDS011;13914;48.178;11.716;2023-03-03T18:53:59;51.10;;;26.33;;
26163;SDS011;13914;48.178;11.716;2023-03-03T18:56:46;47.40;;;23.55;;
26163;SDS011;13914;48.178;11.716;2023-03-03T19:04:42;51.90;;;26.10;;
26163;SDS011;13914;48.178;11.716;2023-03-03T19:07:15;52.78;;;25.77;;
26163;SDS011;13914;48.178;11.716;2023-03-03T19:09:57;56.60;;;27.95;;
26163;SDS011;13914;48.178;11.716;2023-03-03T19:12:40;50.63;;;25.40;;
26163;SDS011;13914;48.178;11.716;2023-03-03T19:18:00;50.90;;;25.30;;
26163;SDS011;13914;48.178;11.716;2023-03-03T19:20:50;51.50;;;25.55;;
26163;SDS011;13914;48.178;11.716;2023-03-03T19:32:03;48.22;;;23.10;;
26163;SDS011;13914;48.178;11.716;2023-03-03T19:34:47;50.17;;;25.10;;
26163;SDS011;13914;48.178;11.716;2023-03-03T19:37:55;53.20;;;26.35;;
26163;SDS011;13914;48.178;11.716;2023-03-03T19:40:50;50.05;;;22.98;;
26163;SDS011;13914;48.178;11.716;2023-03-03T19:57:54;49.80;;;25.45;;
26163;SDS011;13914;48.178;11.716;2023-03-03T20:11:51;44.43;;;23.07;;
26163;SDS011;13914;48.178;11.716;2023-03-03T20:14:34;67.30;;;29.98;;
26163;SDS011;13914;48.178;11.716;2023-03-03T20:17:42;57.20;;;29.38;;
26163;SDS011;13914;48.178;11.716;2023-03-03T20:23:59;60.75;;;29.33;;
26163;SDS011;13914;48.178;11.716;2023-03-03T20:44:24;63.53;;;27.48;;
26163;SDS011;13914;48.178;11.716;2023-03-03T20:47:27;67.35;;;30.13;;
26163;SDS011;13914;48.178;11.716;2023-03-03T21:03:39;54.72;;;25.83;;
26163;SDS011;13914;48.178;11.716;2023-03-03T21:06:12;60.67;;;26.90;;
26163;SDS011;13914;48.178;11.716;2023-03-03T21:12:03;57.22;;;28.73;;
26163;SDS011;13914;48.178;11.716;2023-03-03T21:16:47;57.20;;;25.85;;
26163;SDS011;13914;48.178;11.716;2023-03-03T21:19:22;61.38;;;28.08;;
26163;SDS011;13914;48.178;11.716;2023-03-03T21:21:56;66.60;;;28.52;;
26163;SDS011;13914;48.178;11.716;2023-03-03T21:24:44;53.97;;;26.13;;
26163;SDS011;13914;48.178;11.716;2023-03-03T21:27:23;60.90;;;27.73;;
26163;SDS011;13914;48.178;11.716;2023-03-03T21:32:47;69.82;;;32.35;;
26163;SDS011;13914;48.178;11.716;2023-03-03T21:40:22;60.08;;;27.92;;
26163;SDS011;13914;48.178;11.716;2023-03-03T21:42:54;74.30;;;34.05;;
26163;SDS011;13914;48.178;11.716;2023-03-03T21:45:22;68.90;;;29.98;;
26163;SDS011;13914;48.178;11.716;2023-03-03T21:47:49;62.05;;;29.85;;
26163;SDS011;13914;48.178;11.716;2023-03-03T21:50:17;97.50;;;42.00;;
26163;SDS011;13914;48.178;11.716;2023-03-03T21:52:47;90.82;;;37.08;;
26163;SDS011;13914;48.178;11.716;2023-03-03T21:55:13;73.00;;;34.30;;
26163;SDS011;13914;48.178;11.716;2023-03-03T21:57:39;70.60;;;31.58;;
26163;SDS011;13914;48.178;11.716;2023-03-03T22:00:05;60.65;;;28.50;;
26163;SDS011;13914;48.178;11.716;2023-03-03T22:02:33;61.88;;;29.20;;
26163;SDS011;13914;48.178;11.716;2023-03-03T22:07:27;68.30;;;27.70;;
26163;SDS011;13914;48.178;11.716;2023-03-03T22:09:53;63.72;;;28.85;;
26163;SDS011;13914;48.178;11.716;2023-03-03T22:12:19;65.05;;;29.38;;
26163;SDS011;13914;48.178;11.716;2023-03-03T22:14:45;65.45;;;29.83;;
26163;SDS011;13914;48.178;11.716;2023-03-03T22:17:11;61.50;;;27.80;;
26163;SDS011;13914;48.178;11.716;2023-03-03T22:19:36;44.97;;;19.77;;
26163;SDS011;13914;48.178;11.716;2023-03-03T22:22:02;68.78;;;27.60;;
26163;SDS011;13914;48.178;11.716;2023-03-03T22:24:29;60.20;;;27.77;;
26163;SDS011;13914;48.178;11.716;2023-03-03T22:29:21;54.67;;;23.88;;
26163;SDS011;13914;48.178;11.716;2023-03-03T22:31:50;55.15;;;26.42;;